Terminal Aerodrome Forecast
Issued by NWS

Home | Current Version | Previous Version | Graphics & Text | Print | Product List | Glossary On
Versions: 1 2 3 4 5 6 7 8 9 10 11 12 13 14 15 16 17 18 19 20
000
FTUS43 KMPX 142300
TAFAXN
TAF
KAXN 142328Z 1500/1524 34014G22KT P6SM BKN060
     FM150200 34009KT P6SM FEW070
     FM150400 34004KT P6SM SKC
     FM151900 15010KT P6SM BKN120=

USA.gov is the U.S. government's official web portal to all federal, state and local government web resources and services.